KAMA/AMA METAR and TAF weather

Enter ICAO airport designator
Station Type Date Time Source
KAMA METAR 2023/02/05 23:53 UTC NOAA

KAMA 052353Z 23010KT 10SM CLR 20/M14 A2994 RMK AO2 PK WND 22026/2303 SLP119 T02001139 10239 20139 56010


Station Type Date Time Source
KAMA Decoded METAR 2023/02/05 23:53 UTC NOAA

AMARILLO INTERNATIONAL AIRPORT, TX, United States (KAMA) 35-13N 101-43W 1093M
Feb 05, 2023 - 06:53 PM EST / 2023.02.05 2353 UTC
Wind: from the SW (230 degrees) at 12 MPH (10 KT):0
Visibility: 10 mile(s):0
Sky conditions: clear
Temperature: 68.0 F (20.0 C)
Dew Point: 7.0 F (-13.9 C)
Relative Humidity: 8%
Pressure (altimeter): 29.94 in. Hg (1013 hPa)
Pressure tendency: 0.03 inches (1.0 hPa) lower than three hours ago
ob: KAMA 052353Z 23010KT 10SM CLR 20/M14 A2994 RMK AO2 PK WND 22026/2303 SLP119 T02001139 10239 20139 56010
cycle: 0

Station Type Date Time Source
KAMA TAF 2023/02/05 21:54 UTC NOAA

TAF
AMD KAMA 052051Z 0521/0618 24015G25KT P6SM SKC
FM052300 19014KT P6SM FEW250
FM061600 25016G23KT P6SM SKC

Example: see airport list